sensor_id;sensor_type;location;lat;lon;timestamp;P1;durP1;ratioP1;P2;durP2;ratioP2
44212;SDS011;29882;46.356;17.798;2022-11-12T00:00:11;29.35;;;23.83;;
44212;SDS011;29882;46.356;17.798;2022-11-12T00:02:57;31.92;;;25.35;;
44212;SDS011;29882;46.356;17.798;2022-11-12T00:05:44;30.70;;;23.52;;
44212;SDS011;29882;46.356;17.798;2022-11-12T00:08:29;28.20;;;23.98;;
44212;SDS011;29882;46.356;17.798;2022-11-12T00:11:15;28.70;;;24.23;;
44212;SDS011;29882;46.356;17.798;2022-11-12T00:14:00;29.60;;;23.63;;
44212;SDS011;29882;46.356;17.798;2022-11-12T00:16:46;25.73;;;20.67;;
44212;SDS011;29882;46.356;17.798;2022-11-12T00:19:31;27.10;;;22.27;;
44212;SDS011;29882;46.356;17.798;2022-11-12T00:22:17;27.25;;;23.65;;
44212;SDS011;29882;46.356;17.798;2022-11-12T00:25:02;30.15;;;22.95;;
44212;SDS011;29882;46.356;17.798;2022-11-12T00:27:49;28.15;;;23.65;;
44212;SDS011;29882;46.356;17.798;2022-11-12T00:30:36;29.38;;;26.17;;
44212;SDS011;29882;46.356;17.798;2022-11-12T00:33:22;31.58;;;27.08;;
44212;SDS011;29882;46.356;17.798;2022-11-12T00:36:08;33.03;;;26.52;;
44212;SDS011;29882;46.356;17.798;2022-11-12T00:38:55;33.67;;;27.67;;
44212;SDS011;29882;46.356;17.798;2022-11-12T00:41:40;34.05;;;30.27;;
44212;SDS011;29882;46.356;17.798;2022-11-12T00:44:26;38.10;;;31.98;;
44212;SDS011;29882;46.356;17.798;2022-11-12T00:47:13;41.45;;;33.00;;
44212;SDS011;29882;46.356;17.798;2022-11-12T00:49:59;40.42;;;32.10;;
44212;SDS011;29882;46.356;17.798;2022-11-12T00:52:44;39.80;;;32.70;;
44212;SDS011;29882;46.356;17.798;2022-11-12T00:55:29;35.55;;;31.67;;
44212;SDS011;29882;46.356;17.798;2022-11-12T00:58:14;38.97;;;32.90;;
44212;SDS011;29882;46.356;17.798;2022-11-12T01:01:07;37.17;;;30.80;;
44212;SDS011;29882;46.356;17.798;2022-11-12T01:03:57;41.60;;;34.05;;
44212;SDS011;29882;46.356;17.798;2022-11-12T01:06:43;40.22;;;33.90;;
44212;SDS011;29882;46.356;17.798;2022-11-12T01:09:29;42.20;;;35.38;;
44212;SDS011;29882;46.356;17.798;2022-11-12T01:12:14;42.88;;;36.63;;
44212;SDS011;29882;46.356;17.798;2022-11-12T01:14:59;42.80;;;35.63;;
44212;SDS011;29882;46.356;17.798;2022-11-12T01:17:45;40.08;;;35.47;;
44212;SDS011;29882;46.356;17.798;2022-11-12T01:20:31;38.20;;;33.45;;
44212;SDS011;29882;46.356;17.798;2022-11-12T01:23:17;41.25;;;33.83;;
44212;SDS011;29882;46.356;17.798;2022-11-12T01:26:21;38.65;;;33.30;;
44212;SDS011;29882;46.356;17.798;2022-11-12T01:29:07;37.22;;;33.05;;
44212;SDS011;29882;46.356;17.798;2022-11-12T01:31:53;40.92;;;34.95;;
44212;SDS011;29882;46.356;17.798;2022-11-12T01:34:38;41.00;;;33.92;;
44212;SDS011;29882;46.356;17.798;2022-11-12T01:37:24;40.55;;;34.92;;
44212;SDS011;29882;46.356;17.798;2022-11-12T01:40:09;42.70;;;35.30;;
44212;SDS011;29882;46.356;17.798;2022-11-12T01:42:55;40.55;;;33.55;;
44212;SDS011;29882;46.356;17.798;2022-11-12T01:45:41;40.55;;;35.05;;
44212;SDS011;29882;46.356;17.798;2022-11-12T01:48:34;37.28;;;33.25;;
44212;SDS011;29882;46.356;17.798;2022-11-12T01:51:24;42.17;;;35.03;;
44212;SDS011;29882;46.356;17.798;2022-11-12T01:54:20;41.53;;;34.42;;
44212;SDS011;29882;46.356;17.798;2022-11-12T01:57:08;38.30;;;33.85;;
44212;SDS011;29882;46.356;17.798;2022-11-12T02:00:01;40.45;;;35.70;;
44212;SDS011;29882;46.356;17.798;2022-11-12T02:02:53;40.72;;;34.85;;
44212;SDS011;29882;46.356;17.798;2022-11-12T02:05:42;41.80;;;35.33;;
44212;SDS011;29882;46.356;17.798;2022-11-12T02:08:30;39.95;;;34.50;;
44212;SDS011;29882;46.356;17.798;2022-11-12T02:11:18;40.80;;;34.90;;
44212;SDS011;29882;46.356;17.798;2022-11-12T02:14:05;36.47;;;32.22;;
44212;SDS011;29882;46.356;17.798;2022-11-12T02:16:52;39.13;;;33.03;;
44212;SDS011;29882;46.356;17.798;2022-11-12T02:19:37;35.85;;;31.13;;
44212;SDS011;29882;46.356;17.798;2022-11-12T02:22:23;35.50;;;30.30;;
44212;SDS011;29882;46.356;17.798;2022-11-12T02:25:10;40.78;;;33.55;;
44212;SDS011;29882;46.356;17.798;2022-11-12T02:27:59;38.90;;;33.75;;
44212;SDS011;29882;46.356;17.798;2022-11-12T02:30:47;36.22;;;32.13;;
44212;SDS011;29882;46.356;17.798;2022-11-12T02:33:34;38.13;;;32.55;;
44212;SDS011;29882;46.356;17.798;2022-11-12T02:36:19;35.50;;;31.60;;
44212;SDS011;29882;46.356;17.798;2022-11-12T02:39:05;39.00;;;33.40;;
44212;SDS011;29882;46.356;17.798;2022-11-12T02:41:50;39.35;;;32.72;;
44212;SDS011;29882;46.356;17.798;2022-11-12T02:44:36;37.03;;;32.40;;
44212;SDS011;29882;46.356;17.798;2022-11-12T02:47:21;34.63;;;30.77;;
44212;SDS011;29882;46.356;17.798;2022-11-12T02:50:07;39.10;;;33.20;;
44212;SDS011;29882;46.356;17.798;2022-11-12T02:52:53;35.50;;;31.20;;
44212;SDS011;29882;46.356;17.798;2022-11-12T02:55:38;33.72;;;29.63;;
44212;SDS011;29882;46.356;17.798;2022-11-12T02:58:24;32.60;;;27.88;;
44212;SDS011;29882;46.356;17.798;2022-11-12T03:01:10;36.95;;;27.83;;
44212;SDS011;29882;46.356;17.798;2022-11-12T03:03:55;33.70;;;29.58;;
44212;SDS011;29882;46.356;17.798;2022-11-12T03:06:41;41.25;;;31.48;;
44212;SDS011;29882;46.356;17.798;2022-11-12T03:09:26;38.47;;;31.15;;
44212;SDS011;29882;46.356;17.798;2022-11-12T03:12:12;46.45;;;33.67;;
44212;SDS011;29882;46.356;17.798;2022-11-12T03:14:58;43.45;;;35.28;;
44212;SDS011;29882;46.356;17.798;2022-11-12T03:17:43;55.85;;;38.92;;
44212;SDS011;29882;46.356;17.798;2022-11-12T03:20:29;53.55;;;39.13;;
44212;SDS011;29882;46.356;17.798;2022-11-12T03:23:14;54.38;;;38.40;;
44212;SDS011;29882;46.356;17.798;2022-11-12T03:26:03;50.88;;;37.90;;
44212;SDS011;29882;46.356;17.798;2022-11-12T03:28:50;54.72;;;40.25;;
44212;SDS011;29882;46.356;17.798;2022-11-12T03:31:36;54.10;;;40.67;;
44212;SDS011;29882;46.356;17.798;2022-11-12T03:34:21;48.25;;;41.50;;
44212;SDS011;29882;46.356;17.798;2022-11-12T03:37:06;45.35;;;40.30;;
44212;SDS011;29882;46.356;17.798;2022-11-12T03:39:53;45.28;;;39.17;;
44212;SDS011;29882;46.356;17.798;2022-11-12T03:42:43;49.03;;;40.08;;
44212;SDS011;29882;46.356;17.798;2022-11-12T03:48:18;41.17;;;36.10;;
44212;SDS011;29882;46.356;17.798;2022-11-12T03:51:04;44.80;;;38.97;;
44212;SDS011;29882;46.356;17.798;2022-11-12T03:53:49;45.20;;;39.95;;
44212;SDS011;29882;46.356;17.798;2022-11-12T03:56:35;45.53;;;40.63;;
44212;SDS011;29882;46.356;17.798;2022-11-12T03:59:20;44.50;;;39.38;;
44212;SDS011;29882;46.356;17.798;2022-11-12T04:02:06;44.28;;;39.63;;
44212;SDS011;29882;46.356;17.798;2022-11-12T04:04:52;41.78;;;37.30;;
44212;SDS011;29882;46.356;17.798;2022-11-12T04:08:00;41.55;;;37.10;;
44212;SDS011;29882;46.356;17.798;2022-11-12T04:11:13;38.63;;;34.45;;
44212;SDS011;29882;46.356;17.798;2022-11-12T04:14:01;36.80;;;32.90;;
44212;SDS011;29882;46.356;17.798;2022-11-12T04:16:46;38.55;;;34.50;;
44212;SDS011;29882;46.356;17.798;2022-11-12T04:23:05;33.35;;;30.08;;
44212;SDS011;29882;46.356;17.798;2022-11-12T04:25:50;31.80;;;28.48;;
44212;SDS011;29882;46.356;17.798;2022-11-12T04:28:55;30.35;;;27.23;;
44212;SDS011;29882;46.356;17.798;2022-11-12T04:31:59;30.58;;;27.48;;
44212;SDS011;29882;46.356;17.798;2022-11-12T04:34:44;28.83;;;25.83;;
44212;SDS011;29882;46.356;17.798;2022-11-12T04:37:30;28.70;;;25.77;;
44212;SDS011;29882;46.356;17.798;2022-11-12T04:40:29;28.15;;;25.25;;
44212;SDS011;29882;46.356;17.798;2022-11-12T04:46:37;27.02;;;24.25;;
44212;SDS011;29882;46.356;17.798;2022-11-12T04:49:23;25.40;;;22.85;;
44212;SDS011;29882;46.356;17.798;2022-11-12T04:52:08;24.27;;;21.77;;
44212;SDS011;29882;46.356;17.798;2022-11-12T04:54:54;24.67;;;22.10;;
44212;SDS011;29882;46.356;17.798;2022-11-12T04:57:40;23.45;;;20.98;;
44212;SDS011;29882;46.356;17.798;2022-11-12T05:00:25;24.02;;;21.63;;
44212;SDS011;29882;46.356;17.798;2022-11-12T05:03:11;22.77;;;20.58;;
44212;SDS011;29882;46.356;17.798;2022-11-12T05:06:03;22.20;;;20.00;;
44212;SDS011;29882;46.356;17.798;2022-11-12T05:09:13;22.75;;;20.52;;
44212;SDS011;29882;46.356;17.798;2022-11-12T05:11:58;23.92;;;20.77;;
44212;SDS011;29882;46.356;17.798;2022-11-12T05:14:44;25.25;;;21.52;;
44212;SDS011;29882;46.356;17.798;2022-11-12T05:17:29;22.67;;;20.27;;
44212;SDS011;29882;46.356;17.798;2022-11-12T05:20:15;22.65;;;20.25;;
44212;SDS011;29882;46.356;17.798;2022-11-12T05:23:01;24.42;;;19.23;;
44212;SDS011;29882;46.356;17.798;2022-11-12T05:25:51;21.42;;;18.92;;
44212;SDS011;29882;46.356;17.798;2022-11-12T05:28:37;24.52;;;20.13;;
44212;SDS011;29882;46.356;17.798;2022-11-12T05:31:22;24.75;;;21.17;;
44212;SDS011;29882;46.356;17.798;2022-11-12T05:34:07;22.33;;;19.92;;
44212;SDS011;29882;46.356;17.798;2022-11-12T05:36:53;26.40;;;19.88;;
44212;SDS011;29882;46.356;17.798;2022-11-12T05:39:39;24.73;;;21.45;;
44212;SDS011;29882;46.356;17.798;2022-11-12T05:42:25;25.98;;;23.15;;
44212;SDS011;29882;46.356;17.798;2022-11-12T05:45:11;29.67;;;26.55;;
44212;SDS011;29882;46.356;17.798;2022-11-12T05:47:56;28.17;;;25.27;;
44212;SDS011;29882;46.356;17.798;2022-11-12T05:50:42;27.30;;;24.23;;
44212;SDS011;29882;46.356;17.798;2022-11-12T05:53:47;30.95;;;27.65;;
44212;SDS011;29882;46.356;17.798;2022-11-12T05:56:33;56.25;;;32.92;;
44212;SDS011;29882;46.356;17.798;2022-11-12T05:59:19;37.83;;;31.38;;
44212;SDS011;29882;46.356;17.798;2022-11-12T06:02:04;38.65;;;33.40;;
44212;SDS011;29882;46.356;17.798;2022-11-12T06:04:50;37.00;;;32.38;;
44212;SDS011;29882;46.356;17.798;2022-11-12T06:07:35;33.20;;;29.73;;
44212;SDS011;29882;46.356;17.798;2022-11-12T06:10:21;34.20;;;30.60;;
44212;SDS011;29882;46.356;17.798;2022-11-12T06:13:07;33.70;;;30.30;;
44212;SDS011;29882;46.356;17.798;2022-11-12T06:15:53;30.95;;;27.67;;
44212;SDS011;29882;46.356;17.798;2022-11-12T06:18:39;30.33;;;27.08;;
44212;SDS011;29882;46.356;17.798;2022-11-12T06:21:25;32.38;;;28.95;;
44212;SDS011;29882;46.356;17.798;2022-11-12T06:24:12;29.42;;;26.23;;
44212;SDS011;29882;46.356;17.798;2022-11-12T06:26:58;29.95;;;25.75;;
44212;SDS011;29882;46.356;17.798;2022-11-12T06:29:43;29.27;;;26.17;;
44212;SDS011;29882;46.356;17.798;2022-11-12T06:32:29;27.95;;;24.75;;
44212;SDS011;29882;46.356;17.798;2022-11-12T06:35:14;27.67;;;24.95;;
44212;SDS011;29882;46.356;17.798;2022-11-12T06:38:01;28.17;;;25.17;;
44212;SDS011;29882;46.356;17.798;2022-11-12T06:40:47;28.83;;;25.92;;
44212;SDS011;29882;46.356;17.798;2022-11-12T06:43:32;27.15;;;24.17;;
44212;SDS011;29882;46.356;17.798;2022-11-12T06:46:19;28.52;;;24.92;;
44212;SDS011;29882;46.356;17.798;2022-11-12T06:49:05;29.25;;;26.35;;
44212;SDS011;29882;46.356;17.798;2022-11-12T06:51:50;29.08;;;26.17;;
44212;SDS011;29882;46.356;17.798;2022-11-12T06:54:36;28.77;;;25.88;;
44212;SDS011;29882;46.356;17.798;2022-11-12T06:57:22;28.83;;;25.90;;
44212;SDS011;29882;46.356;17.798;2022-11-12T07:00:07;28.00;;;25.20;;
44212;SDS011;29882;46.356;17.798;2022-11-12T07:02:55;29.75;;;26.65;;
44212;SDS011;29882;46.356;17.798;2022-11-12T07:05:41;28.83;;;25.92;;
44212;SDS011;29882;46.356;17.798;2022-11-12T07:08:27;30.88;;;27.67;;
44212;SDS011;29882;46.356;17.798;2022-11-12T07:11:13;31.17;;;27.95;;
44212;SDS011;29882;46.356;17.798;2022-11-12T07:13:59;32.35;;;28.98;;
44212;SDS011;29882;46.356;17.798;2022-11-12T07:16:44;31.17;;;27.98;;
44212;SDS011;29882;46.356;17.798;2022-11-12T07:19:29;32.65;;;28.80;;
44212;SDS011;29882;46.356;17.798;2022-11-12T07:22:15;29.15;;;26.05;;
44212;SDS011;29882;46.356;17.798;2022-11-12T07:25:00;29.55;;;26.45;;
44212;SDS011;29882;46.356;17.798;2022-11-12T07:27:46;30.95;;;25.48;;
44212;SDS011;29882;46.356;17.798;2022-11-12T07:30:31;27.50;;;24.65;;
44212;SDS011;29882;46.356;17.798;2022-11-12T07:33:17;27.75;;;24.10;;
44212;SDS011;29882;46.356;17.798;2022-11-12T07:36:03;26.50;;;22.35;;
44212;SDS011;29882;46.356;17.798;2022-11-12T07:38:51;26.85;;;23.77;;
44212;SDS011;29882;46.356;17.798;2022-11-12T07:41:38;24.10;;;21.00;;
44212;SDS011;29882;46.356;17.798;2022-11-12T07:44:23;26.75;;;20.98;;
44212;SDS011;29882;46.356;17.798;2022-11-12T07:47:09;23.20;;;20.85;;
44212;SDS011;29882;46.356;17.798;2022-11-12T07:49:54;22.40;;;20.10;;
44212;SDS011;29882;46.356;17.798;2022-11-12T07:52:39;24.95;;;22.33;;
44212;SDS011;29882;46.356;17.798;2022-11-12T07:55:25;25.98;;;22.40;;
44212;SDS011;29882;46.356;17.798;2022-11-12T07:58:10;22.23;;;19.58;;
44212;SDS011;29882;46.356;17.798;2022-11-12T08:00:56;22.08;;;18.10;;
44212;SDS011;29882;46.356;17.798;2022-11-12T08:03:42;21.15;;;18.98;;
44212;SDS011;29882;46.356;17.798;2022-11-12T08:06:28;23.35;;;18.42;;
44212;SDS011;29882;46.356;17.798;2022-11-12T08:09:15;20.60;;;18.42;;
44212;SDS011;29882;46.356;17.798;2022-11-12T08:12:00;23.80;;;18.23;;
44212;SDS011;29882;46.356;17.798;2022-11-12T08:14:46;20.17;;;18.20;;
44212;SDS011;29882;46.356;17.798;2022-11-12T08:17:31;20.40;;;18.40;;
44212;SDS011;29882;46.356;17.798;2022-11-12T08:20:22;20.42;;;18.23;;
44212;SDS011;29882;46.356;17.798;2022-11-12T08:23:08;20.83;;;18.48;;
44212;SDS011;29882;46.356;17.798;2022-11-12T08:26:01;22.52;;;20.15;;
44212;SDS011;29882;46.356;17.798;2022-11-12T08:28:48;21.80;;;18.73;;
44212;SDS011;29882;46.356;17.798;2022-11-12T08:31:34;24.20;;;20.45;;
44212;SDS011;29882;46.356;17.798;2022-11-12T08:34:20;23.88;;;20.00;;
44212;SDS011;29882;46.356;17.798;2022-11-12T08:37:07;22.48;;;20.15;;
44212;SDS011;29882;46.356;17.798;2022-11-12T08:39:52;22.65;;;19.85;;
44212;SDS011;29882;46.356;17.798;2022-11-12T08:42:38;22.65;;;20.33;;
44212;SDS011;29882;46.356;17.798;2022-11-12T08:45:24;22.38;;;20.05;;
44212;SDS011;29882;46.356;17.798;2022-11-12T08:48:10;22.33;;;20.02;;
44212;SDS011;29882;46.356;17.798;2022-11-12T08:51:01;20.85;;;18.75;;
44212;SDS011;29882;46.356;17.798;2022-11-12T08:53:48;20.88;;;18.45;;
44212;SDS011;29882;46.356;17.798;2022-11-12T08:56:33;22.08;;;18.00;;
44212;SDS011;29882;46.356;17.798;2022-11-12T08:59:19;21.38;;;19.17;;
44212;SDS011;29882;46.356;17.798;2022-11-12T09:02:04;25.30;;;19.83;;
44212;SDS011;29882;46.356;17.798;2022-11-12T09:04:50;22.77;;;19.80;;
44212;SDS011;29882;46.356;17.798;2022-11-12T09:07:36;22.17;;;19.75;;
44212;SDS011;29882;46.356;17.798;2022-11-12T09:10:37;22.00;;;19.77;;
44212;SDS011;29882;46.356;17.798;2022-11-12T09:13:23;22.42;;;20.00;;
44212;SDS011;29882;46.356;17.798;2022-11-12T09:16:08;22.20;;;19.23;;
44212;SDS011;29882;46.356;17.798;2022-11-12T09:18:54;22.42;;;20.13;;
44212;SDS011;29882;46.356;17.798;2022-11-12T09:21:39;20.90;;;18.67;;
44212;SDS011;29882;46.356;17.798;2022-11-12T09:24:25;22.67;;;19.55;;
44212;SDS011;29882;46.356;17.798;2022-11-12T09:27:10;27.05;;;19.58;;
44212;SDS011;29882;46.356;17.798;2022-11-12T09:29:55;21.63;;;18.98;;
44212;SDS011;29882;46.356;17.798;2022-11-12T09:32:41;28.00;;;24.10;;
44212;SDS011;29882;46.356;17.798;2022-11-12T09:35:26;21.50;;;19.30;;
44212;SDS011;29882;46.356;17.798;2022-11-12T09:38:12;20.58;;;18.48;;
44212;SDS011;29882;46.356;17.798;2022-11-12T09:44:02;20.05;;;17.85;;
44212;SDS011;29882;46.356;17.798;2022-11-12T09:49:49;22.20;;;19.80;;
44212;SDS011;29882;46.356;17.798;2022-11-12T09:52:45;31.60;;;26.45;;
44212;SDS011;29882;46.356;17.798;2022-11-12T09:55:38;25.70;;;20.10;;
44212;SDS011;29882;46.356;17.798;2022-11-12T09:58:26;23.35;;;20.15;;
44212;SDS011;29882;46.356;17.798;2022-11-12T10:01:13;21.90;;;19.55;;
44212;SDS011;29882;46.356;17.798;2022-11-12T10:04:06;21.88;;;19.38;;
44212;SDS011;29882;46.356;17.798;2022-11-12T10:10:14;22.42;;;19.80;;
44212;SDS011;29882;46.356;17.798;2022-11-12T10:13:19;25.20;;;20.90;;
44212;SDS011;29882;46.356;17.798;2022-11-12T10:25:59;26.98;;;23.00;;
44212;SDS011;29882;46.356;17.798;2022-11-12T10:28:47;28.77;;;21.10;;
44212;SDS011;29882;46.356;17.798;2022-11-12T10:31:37;22.73;;;19.42;;
44212;SDS011;29882;46.356;17.798;2022-11-12T10:34:23;19.27;;;16.25;;
44212;SDS011;29882;46.356;17.798;2022-11-12T10:43:08;16.98;;;14.48;;
44212;SDS011;29882;46.356;17.798;2022-11-12T10:46:19;17.20;;;15.07;;
44212;SDS011;29882;46.356;17.798;2022-11-12T10:51:58;16.02;;;13.82;;
44212;SDS011;29882;46.356;17.798;2022-11-12T10:54:44;15.20;;;13.27;;
44212;SDS011;29882;46.356;17.798;2022-11-12T10:57:36;14.52;;;12.98;;
44212;SDS011;29882;46.356;17.798;2022-11-12T11:00:21;17.30;;;13.38;;
44212;SDS011;29882;46.356;17.798;2022-11-12T11:03:15;18.38;;;12.95;;
44212;SDS011;29882;46.356;17.798;2022-11-12T11:06:29;14.65;;;13.05;;
44212;SDS011;29882;46.356;17.798;2022-11-12T11:11:56;19.85;;;13.60;;
44212;SDS011;29882;46.356;17.798;2022-11-12T11:14:43;15.27;;;13.60;;
44212;SDS011;29882;46.356;17.798;2022-11-12T11:17:28;16.77;;;13.32;;
44212;SDS011;29882;46.356;17.798;2022-11-12T11:23:07;15.50;;;13.25;;
44212;SDS011;29882;46.356;17.798;2022-11-12T11:29:29;16.13;;;14.20;;
44212;SDS011;29882;46.356;17.798;2022-11-12T11:35:45;16.33;;;14.57;;
44212;SDS011;29882;46.356;17.798;2022-11-12T11:53:53;17.60;;;14.80;;
44212;SDS011;29882;46.356;17.798;2022-11-12T12:02:41;16.15;;;13.77;;
44212;SDS011;29882;46.356;17.798;2022-11-12T12:12:14;19.00;;;14.95;;
44212;SDS011;29882;46.356;17.798;2022-11-12T12:24:09;18.30;;;15.50;;
44212;SDS011;29882;46.356;17.798;2022-11-12T12:27:03;18.83;;;14.88;;
44212;SDS011;29882;46.356;17.798;2022-11-12T12:30:00;18.55;;;16.60;;
44212;SDS011;29882;46.356;17.798;2022-11-12T12:36:32;19.50;;;16.92;;
44212;SDS011;29882;46.356;17.798;2022-11-12T12:39:24;18.05;;;16.08;;
44212;SDS011;29882;46.356;17.798;2022-11-12T12:42:18;20.35;;;15.40;;
44212;SDS011;29882;46.356;17.798;2022-11-12T12:48:28;17.17;;;15.35;;
44212;SDS011;29882;46.356;17.798;2022-11-12T12:51:20;17.67;;;15.80;;
44212;SDS011;29882;46.356;17.798;2022-11-12T12:57:36;18.53;;;16.53;;
44212;SDS011;29882;46.356;17.798;2022-11-12T13:00:39;20.05;;;15.75;;
44212;SDS011;29882;46.356;17.798;2022-11-12T13:06:38;17.83;;;15.55;;
44212;SDS011;29882;46.356;17.798;2022-11-12T13:09:36;15.98;;;14.27;;
44212;SDS011;29882;46.356;17.798;2022-11-12T13:12:28;18.35;;;16.42;;
44212;SDS011;29882;46.356;17.798;2022-11-12T13:15:48;20.92;;;15.50;;
44212;SDS011;29882;46.356;17.798;2022-11-12T13:21:23;18.27;;;16.10;;
44212;SDS011;29882;46.356;17.798;2022-11-12T13:24:09;17.73;;;15.88;;
44212;SDS011;29882;46.356;17.798;2022-11-12T13:26:56;19.10;;;17.08;;
44212;SDS011;29882;46.356;17.798;2022-11-12T13:29:43;19.10;;;16.63;;
44212;SDS011;29882;46.356;17.798;2022-11-12T13:35:40;18.95;;;16.77;;
44212;SDS011;29882;46.356;17.798;2022-11-12T13:38:25;20.88;;;16.38;;
44212;SDS011;29882;46.356;17.798;2022-11-12T13:41:14;17.95;;;15.43;;
44212;SDS011;29882;46.356;17.798;2022-11-12T13:44:03;18.42;;;15.57;;
44212;SDS011;29882;46.356;17.798;2022-11-12T13:46:52;17.83;;;15.48;;
44212;SDS011;29882;46.356;17.798;2022-11-12T13:49:40;18.75;;;16.40;;
44212;SDS011;29882;46.356;17.798;2022-11-12T13:52:27;20.08;;;16.55;;
44212;SDS011;29882;46.356;17.798;2022-11-12T13:58:04;18.83;;;16.67;;
44212;SDS011;29882;46.356;17.798;2022-11-12T14:01:03;18.35;;;15.88;;
44212;SDS011;29882;46.356;17.798;2022-11-12T14:03:51;17.70;;;15.80;;
44212;SDS011;29882;46.356;17.798;2022-11-12T14:06:39;17.23;;;15.43;;
44212;SDS011;29882;46.356;17.798;2022-11-12T14:09:40;17.30;;;15.60;;
44212;SDS011;29882;46.356;17.798;2022-11-12T14:21:38;18.20;;;16.10;;
44212;SDS011;29882;46.356;17.798;2022-11-12T14:24:24;17.67;;;15.82;;
44212;SDS011;29882;46.356;17.798;2022-11-12T14:30:28;18.98;;;16.17;;
44212;SDS011;29882;46.356;17.798;2022-11-12T14:33:17;18.77;;;15.30;;
44212;SDS011;29882;46.356;17.798;2022-11-12T14:36:11;17.42;;;15.57;;
44212;SDS011;29882;46.356;17.798;2022-11-12T14:39:00;20.55;;;16.35;;
44212;SDS011;29882;46.356;17.798;2022-11-12T14:41:45;18.48;;;15.27;;
44212;SDS011;29882;46.356;17.798;2022-11-12T14:44:33;19.27;;;16.90;;
44212;SDS011;29882;46.356;17.798;2022-11-12T14:47:21;19.55;;;17.38;;
44212;SDS011;29882;46.356;17.798;2022-11-12T14:50:23;18.13;;;16.33;;
44212;SDS011;29882;46.356;17.798;2022-11-12T14:53:33;20.45;;;16.67;;
44212;SDS011;29882;46.356;17.798;2022-11-12T14:56:33;19.00;;;16.45;;
44212;SDS011;29882;46.356;17.798;2022-11-12T15:02:07;18.80;;;16.17;;
44212;SDS011;29882;46.356;17.798;2022-11-12T15:05:18;21.77;;;16.92;;
44212;SDS011;29882;46.356;17.798;2022-11-12T15:08:08;23.85;;;18.88;;
44212;SDS011;29882;46.356;17.798;2022-11-12T15:10:56;22.85;;;17.73;;
44212;SDS011;29882;46.356;17.798;2022-11-12T15:14:05;19.45;;;17.02;;
44212;SDS011;29882;46.356;17.798;2022-11-12T15:16:58;21.95;;;18.70;;
44212;SDS011;29882;46.356;17.798;2022-11-12T15:19:45;23.45;;;18.70;;
44212;SDS011;29882;46.356;17.798;2022-11-12T15:22:30;22.92;;;19.77;;
44212;SDS011;29882;46.356;17.798;2022-11-12T15:25:20;22.13;;;19.70;;
44212;SDS011;29882;46.356;17.798;2022-11-12T15:28:21;22.45;;;19.45;;
44212;SDS011;29882;46.356;17.798;2022-11-12T15:31:17;21.20;;;18.98;;
44212;SDS011;29882;46.356;17.798;2022-11-12T15:37:23;24.67;;;20.35;;
44212;SDS011;29882;46.356;17.798;2022-11-12T15:40:15;26.33;;;22.92;;
44212;SDS011;29882;46.356;17.798;2022-11-12T15:43:02;24.08;;;21.00;;
44212;SDS011;29882;46.356;17.798;2022-11-12T15:45:56;34.00;;;29.30;;
44212;SDS011;29882;46.356;17.798;2022-11-12T15:48:42;30.35;;;26.63;;
44212;SDS011;29882;46.356;17.798;2022-11-12T15:51:28;24.88;;;21.98;;
44212;SDS011;29882;46.356;17.798;2022-11-12T15:54:13;26.95;;;22.23;;
44212;SDS011;29882;46.356;17.798;2022-11-12T15:56:59;27.70;;;22.98;;
44212;SDS011;29882;46.356;17.798;2022-11-12T15:59:44;25.77;;;23.00;;
44212;SDS011;29882;46.356;17.798;2022-11-12T16:02:56;26.23;;;22.13;;
44212;SDS011;29882;46.356;17.798;2022-11-12T16:05:44;25.98;;;22.83;;
44212;SDS011;29882;46.356;17.798;2022-11-12T16:08:30;31.80;;;24.38;;
44212;SDS011;29882;46.356;17.798;2022-11-12T16:11:15;28.02;;;22.30;;
44212;SDS011;29882;46.356;17.798;2022-11-12T16:14:19;28.95;;;22.73;;
44212;SDS011;29882;46.356;17.798;2022-11-12T16:17:12;27.10;;;23.85;;
44212;SDS011;29882;46.356;17.798;2022-11-12T16:19:59;27.48;;;24.08;;
44212;SDS011;29882;46.356;17.798;2022-11-12T16:22:46;31.73;;;26.98;;
44212;SDS011;29882;46.356;17.798;2022-11-12T16:25:32;31.45;;;26.92;;
44212;SDS011;29882;46.356;17.798;2022-11-12T16:28:20;33.55;;;27.25;;
44212;SDS011;29882;46.356;17.798;2022-11-12T16:31:05;35.50;;;29.33;;
44212;SDS011;29882;46.356;17.798;2022-11-12T16:33:51;39.47;;;31.58;;
44212;SDS011;29882;46.356;17.798;2022-11-12T16:36:37;41.67;;;36.08;;
44212;SDS011;29882;46.356;17.798;2022-11-12T16:39:24;47.10;;;36.95;;
44212;SDS011;29882;46.356;17.798;2022-11-12T16:42:09;46.72;;;38.53;;
44212;SDS011;29882;46.356;17.798;2022-11-12T16:44:55;44.35;;;39.03;;
44212;SDS011;29882;46.356;17.798;2022-11-12T16:47:59;54.42;;;43.80;;
44212;SDS011;29882;46.356;17.798;2022-11-12T16:50:45;51.15;;;42.00;;
44212;SDS011;29882;46.356;17.798;2022-11-12T16:53:31;50.67;;;41.60;;
44212;SDS011;29882;46.356;17.798;2022-11-12T16:56:20;49.05;;;40.42;;
44212;SDS011;29882;46.356;17.798;2022-11-12T16:59:09;48.47;;;41.80;;
44212;SDS011;29882;46.356;17.798;2022-11-12T17:01:58;64.28;;;47.60;;
44212;SDS011;29882;46.356;17.798;2022-11-12T17:04:43;60.67;;;47.22;;
44212;SDS011;29882;46.356;17.798;2022-11-12T17:07:29;62.35;;;48.80;;
44212;SDS011;29882;46.356;17.798;2022-11-12T17:10:15;60.50;;;48.08;;
